createdAt,value
2019-04-04T00:01:04.588Z,6.70
2019-04-04T00:03:32.435Z,6.70
2019-04-04T00:06:00.194Z,6.80
2019-04-04T00:08:30.771Z,6.80
2019-04-04T00:10:57.811Z,6.80
2019-04-04T00:13:25.662Z,6.80
2019-04-04T00:15:53.454Z,6.90
2019-04-04T00:18:21.289Z,6.80
2019-04-04T00:20:49.105Z,6.80
2019-04-04T00:23:16.914Z,6.80
2019-04-04T00:25:44.699Z,6.80
2019-04-04T00:28:14.624Z,6.80
2019-04-04T00:30:42.444Z,6.80
2019-04-04T00:33:10.250Z,6.80
2019-04-04T00:35:38.037Z,6.70
2019-04-04T00:38:07.082Z,6.60
2019-04-04T00:40:35.711Z,6.70
2019-04-04T00:43:03.526Z,6.80
2019-04-04T00:45:31.364Z,6.80
2019-04-04T00:47:59.178Z,6.90
2019-04-04T00:50:27.028Z,6.90
2019-04-04T00:52:54.878Z,6.90
2019-04-04T00:55:22.706Z,6.90
2019-04-04T00:57:50.792Z,6.90
2019-04-04T01:00:19.087Z,6.90
2019-04-04T01:02:46.889Z,6.90
2019-04-04T01:05:14.675Z,6.90
2019-04-04T01:07:42.492Z,6.80
2019-04-04T01:10:25.418Z,6.80
2019-04-04T01:12:53.174Z,6.60
2019-04-04T01:15:20.932Z,6.60
2019-04-04T01:17:48.762Z,6.50
2019-04-04T01:20:20.036Z,6.50
2019-04-04T01:22:46.633Z,6.50
2019-04-04T01:25:14.393Z,6.60
2019-04-04T01:27:42.212Z,6.60
2019-04-04T01:30:20.180Z,6.70
2019-04-04T01:32:48.237Z,6.70
2019-04-04T01:35:16.615Z,6.70
2019-04-04T01:37:44.389Z,6.80
2019-04-04T01:40:12.178Z,6.80
2019-04-04T01:42:39.967Z,6.80
2019-04-04T01:45:08.274Z,6.80
2019-04-04T01:47:36.026Z,6.80
2019-04-04T01:50:04.345Z,6.80
2019-04-04T01:52:32.181Z,6.40
2019-04-04T01:55:03.021Z,6.60
2019-04-04T01:57:29.596Z,6.90
2019-04-04T02:00:03.140Z,6.50
2019-04-04T02:02:30.927Z,6.30
2019-04-04T02:04:58.708Z,6.30
2019-04-04T02:07:27.818Z,6.40
2019-04-04T02:09:56.168Z,6.40
2019-04-04T02:12:23.926Z,6.40
2019-04-04T02:14:51.686Z,6.60
2019-04-04T02:17:20.043Z,6.40
2019-04-04T02:19:49.221Z,6.40
2019-04-04T02:22:17.088Z,6.40
2019-04-04T02:24:44.848Z,6.40
2019-04-04T02:27:12.630Z,6.50
2019-04-04T02:29:45.530Z,6.50
2019-04-04T02:32:15.353Z,6.60
2019-04-04T02:34:43.124Z,6.00
2019-04-04T02:37:10.877Z,6.50
2019-04-04T02:39:38.739Z,6.50
2019-04-04T02:42:06.588Z,6.50
2019-04-04T02:44:34.366Z,6.50
2019-04-04T02:47:02.152Z,7.10
2019-04-04T02:49:40.272Z,6.70
2019-04-04T02:52:08.049Z,6.50
2019-04-04T02:54:35.830Z,6.50
2019-04-04T02:57:08.161Z,6.50
2019-04-04T02:59:33.318Z,6.50
2019-04-04T03:02:04.870Z,6.50
2019-04-04T03:04:30.767Z,6.50
2019-04-04T03:06:58.831Z,6.50
2019-04-04T03:09:26.855Z,6.50
2019-04-04T03:11:54.771Z,6.50
2019-04-04T03:14:22.614Z,6.50
2019-04-04T03:16:50.988Z,6.50
2019-04-04T03:19:18.789Z,6.50
2019-04-04T03:21:46.557Z,6.50
2019-04-04T03:24:14.360Z,6.60
2019-04-04T03:26:42.104Z,6.50
2019-04-04T03:29:10.640Z,6.50
2019-04-04T03:31:39.303Z,6.50
2019-04-04T03:34:10.997Z,6.50
2019-04-04T03:36:36.951Z,6.50
2019-04-04T03:39:06.298Z,6.60
2019-04-04T03:41:35.824Z,6.50
2019-04-04T03:44:04.184Z,6.80
2019-04-04T03:46:37.686Z,6.50
2019-04-04T03:49:01.623Z,6.50
2019-04-04T03:51:29.924Z,6.40
2019-04-04T03:54:00.441Z,6.30
2019-04-04T03:56:33.247Z,6.50
2019-04-04T03:59:00.167Z,6.50
2019-04-04T04:01:27.817Z,6.40
2019-04-04T04:03:55.770Z,6.40
2019-04-04T04:06:23.819Z,7.00
2019-04-04T04:08:54.701Z,6.40
2019-04-04T04:11:21.364Z,6.60
2019-04-04T04:13:50.062Z,6.60
2019-04-04T04:16:17.933Z,6.60
2019-04-04T04:18:45.753Z,7.10
2019-04-04T04:21:13.589Z,6.70
2019-04-04T04:23:41.431Z,6.80
2019-04-04T04:26:09.892Z,6.90
2019-04-04T04:28:37.838Z,6.90
2019-04-04T04:31:15.807Z,6.90
2019-04-04T04:33:45.374Z,7.00
2019-04-04T04:36:15.791Z,7.60
2019-04-04T04:38:42.881Z,6.50
2019-04-04T04:41:10.797Z,7.00
2019-04-04T04:43:38.552Z,6.90
2019-04-04T04:46:09.293Z,6.90
2019-04-04T04:48:37.069Z,6.90
2019-04-04T04:51:11.993Z,7.00
2019-04-04T04:53:39.591Z,7.00
2019-04-04T04:56:08.492Z,7.00
2019-04-04T04:58:36.342Z,7.00
2019-04-04T05:01:04.212Z,6.90
2019-04-04T05:03:32.010Z,7.50
2019-04-04T05:06:02.308Z,6.90
2019-04-04T05:08:29.518Z,7.00
2019-04-04T05:10:57.266Z,7.00
2019-04-04T05:13:28.565Z,7.00
2019-04-04T05:15:54.735Z,7.10
2019-04-04T05:18:22.521Z,7.10
2019-04-04T05:20:50.351Z,7.10
2019-04-04T05:23:18.199Z,7.10
2019-04-04T05:25:53.615Z,6.90
2019-04-04T05:28:15.694Z,6.90
2019-04-04T05:30:45.115Z,6.70
2019-04-04T05:33:27.396Z,6.70
2019-04-04T05:35:54.875Z,6.60
2019-04-04T05:38:22.698Z,6.70
2019-04-04T05:40:50.450Z,6.80
2019-04-04T05:43:18.249Z,6.90
2019-04-04T05:45:46.060Z,6.80
2019-04-04T05:48:13.843Z,6.80
2019-04-04T05:50:43.730Z,6.80
2019-04-04T05:53:11.364Z,6.80
2019-04-04T05:55:39.832Z,6.70
2019-04-04T05:58:08.830Z,6.70
2019-04-04T06:00:38.818Z,6.80
2019-04-04T06:03:06.580Z,7.30
2019-04-04T06:05:34.469Z,7.00
2019-04-04T06:08:02.229Z,7.20
2019-04-04T06:10:30.002Z,7.10
2019-04-04T06:12:57.772Z,7.60
2019-04-04T06:15:25.597Z,7.00
2019-04-04T06:17:53.582Z,7.00
2019-04-04T06:20:51.809Z,6.90
2019-04-04T06:23:20.566Z,6.80
2019-04-04T06:25:48.640Z,6.70
2019-04-04T06:28:16.367Z,6.80
2019-04-04T06:30:44.337Z,6.80
2019-04-04T06:33:12.127Z,6.90
2019-04-04T06:35:40.133Z,7.00
2019-04-04T06:38:07.992Z,7.00
2019-04-04T06:40:35.997Z,7.10
2019-04-04T06:43:04.181Z,7.10
2019-04-04T06:45:33.211Z,7.10
2019-04-04T06:48:01.006Z,7.20
2019-04-04T06:50:28.840Z,7.20
2019-04-04T06:52:56.835Z,7.20
2019-04-04T06:55:28.328Z,7.30
2019-04-04T06:57:54.816Z,7.20
2019-04-04T07:00:22.720Z,7.10
2019-04-04T07:02:50.598Z,7.20
2019-04-04T07:05:18.407Z,7.40
2019-04-04T07:07:46.195Z,7.30
2019-04-04T07:10:14.177Z,7.40
2019-04-04T07:12:42.582Z,7.50
2019-04-04T07:15:12.439Z,7.40
2019-04-04T07:17:41.258Z,7.50
2019-04-04T07:20:09.355Z,7.40
2019-04-04T07:22:37.433Z,7.40
2019-04-04T07:25:06.560Z,7.60
2019-04-04T07:27:34.775Z,8.00
2019-04-04T07:30:02.704Z,7.80
2019-04-04T07:32:30.471Z,7.90
2019-04-04T07:34:58.251Z,8.00
2019-04-04T07:37:26.035Z,8.00
2019-04-04T07:39:53.806Z,8.10
2019-04-04T07:42:23.421Z,8.10
2019-04-04T07:44:54.364Z,8.00
2019-04-04T07:47:20.879Z,8.20
2019-04-04T07:49:48.660Z,8.20
2019-04-04T07:52:17.396Z,8.20
2019-04-04T07:54:45.454Z,8.40
2019-04-04T07:57:13.251Z,8.20
2019-04-04T07:59:41.040Z,8.30
2019-04-04T08:02:08.944Z,8.40
2019-04-04T08:04:36.709Z,8.30
2019-04-04T08:07:04.567Z,8.40
2019-04-04T08:09:32.356Z,8.30
2019-04-04T08:12:00.201Z,8.20
2019-04-04T08:14:27.967Z,8.10
2019-04-04T08:16:55.801Z,8.20
2019-04-04T08:19:23.597Z,8.10
2019-04-04T08:21:51.480Z,8.10
2019-04-04T08:24:19.292Z,8.00
2019-04-04T08:26:47.129Z,7.80
2019-04-04T08:29:14.960Z,7.90
2019-04-04T08:31:42.807Z,7.90
2019-04-04T08:34:10.616Z,8.00
2019-04-04T08:36:38.376Z,8.10
2019-04-04T08:39:09.094Z,8.10
2019-04-04T08:41:36.946Z,8.10
2019-04-04T08:44:04.744Z,8.30
2019-04-04T08:46:32.592Z,8.40
2019-04-04T08:49:00.353Z,8.50
2019-04-04T08:51:28.211Z,8.60
2019-04-04T08:53:56.013Z,8.60
2019-04-04T08:56:23.825Z,8.60
2019-04-04T08:58:51.920Z,8.60
2019-04-04T09:01:19.820Z,8.50
2019-04-04T09:03:47.673Z,8.40
2019-04-04T09:06:15.531Z,8.50
2019-04-04T09:08:45.655Z,8.60
2019-04-04T09:11:14.580Z,8.70
2019-04-04T09:13:42.425Z,8.70
2019-04-04T09:16:10.238Z,8.60
2019-04-04T09:18:38.346Z,8.60
2019-04-04T09:21:06.159Z,8.60
2019-04-04T09:23:34.079Z,8.70
2019-04-04T09:26:05.932Z,8.80
2019-04-04T09:28:31.652Z,8.80
2019-04-04T09:30:59.442Z,8.80
2019-04-04T09:33:27.330Z,8.70
2019-04-04T09:35:55.243Z,8.70
2019-04-04T09:38:23.065Z,8.80
2019-04-04T09:40:50.916Z,8.70
2019-04-04T09:43:18.729Z,8.70
2019-04-04T09:45:46.555Z,8.70
2019-04-04T09:48:14.419Z,8.70
2019-04-04T09:50:47.440Z,8.90
2019-04-04T09:53:15.298Z,8.90
2019-04-04T09:55:43.127Z,9.10
2019-04-04T09:58:11.272Z,9.10
2019-04-04T10:00:39.091Z,9.00
2019-04-04T10:03:06.883Z,9.20
2019-04-04T10:05:35.977Z,9.40
2019-04-04T10:08:03.823Z,9.80
2019-04-04T10:10:46.765Z,10.00
2019-04-04T10:13:14.653Z,10.50
2019-04-04T10:15:42.820Z,10.90
2019-04-04T10:18:10.633Z,11.80
2019-04-04T10:20:38.413Z,11.90
2019-04-04T10:23:06.232Z,12.30
2019-04-04T10:25:34.076Z,13.40
2019-04-04T10:28:01.899Z,13.50
2019-04-04T10:30:29.720Z,13.10
2019-04-04T10:32:57.569Z,13.40
2019-04-04T10:35:25.496Z,13.00
2019-04-04T10:37:53.344Z,13.60
2019-04-04T10:40:21.162Z,12.50
2019-04-04T10:42:48.958Z,12.90
2019-04-04T10:45:16.724Z,14.00
2019-04-04T10:47:44.551Z,14.30
2019-04-04T10:50:12.708Z,13.90
2019-04-04T10:52:40.550Z,14.40
2019-04-04T10:55:08.443Z,15.00
2019-04-04T10:57:36.278Z,15.20
2019-04-04T11:00:07.233Z,14.70
2019-04-04T11:02:35.065Z,14.70
2019-04-04T11:05:02.949Z,15.10
2019-04-04T11:07:30.757Z,15.30
2019-04-04T11:10:05.135Z,15.90
2019-04-04T11:12:34.433Z,15.40
2019-04-04T11:15:02.637Z,14.60
2019-04-04T11:17:30.494Z,14.50
2019-04-04T11:19:58.543Z,14.40
2019-04-04T11:22:26.333Z,14.40
2019-04-04T11:24:54.225Z,14.00
2019-04-04T11:27:22.085Z,14.10
2019-04-04T11:29:49.930Z,13.90
2019-04-04T11:32:17.739Z,13.40
2019-04-04T11:34:52.980Z,13.40
2019-04-04T11:37:15.251Z,13.10
2019-04-04T11:39:53.954Z,13.00
2019-04-04T11:42:12.876Z,13.20
2019-04-04T11:44:40.690Z,13.40
2019-04-04T11:47:08.477Z,13.60
2019-04-04T11:49:36.402Z,13.90
2019-04-04T11:52:04.217Z,13.90
2019-04-04T11:54:34.934Z,13.80
2019-04-04T11:57:02.794Z,14.30
2019-04-04T11:59:30.846Z,14.60
2019-04-04T12:01:59.628Z,14.60
2019-04-04T12:04:27.483Z,15.00
2019-04-04T12:06:55.285Z,15.10
2019-04-04T12:09:38.260Z,15.30
2019-04-04T12:12:06.062Z,15.60
2019-04-04T12:14:33.903Z,16.00
2019-04-04T12:17:01.667Z,15.80
2019-04-04T12:20:19.498Z,15.80
2019-04-04T12:22:47.272Z,16.80
2019-04-04T12:25:15.135Z,17.40
2019-04-04T12:27:42.912Z,17.40
2019-04-04T12:30:10.979Z,17.70
2019-04-04T12:32:38.836Z,17.90
2019-04-04T12:35:06.827Z,17.20
2019-04-04T12:37:34.620Z,17.20
2019-04-04T12:40:02.462Z,16.50
2019-04-04T12:42:30.299Z,16.40
2019-04-04T12:44:58.521Z,16.50
2019-04-04T12:47:26.344Z,16.10
2019-04-04T12:49:54.114Z,15.80
2019-04-04T12:52:21.917Z,15.40
2019-04-04T12:54:50.394Z,15.00
2019-04-04T12:57:18.316Z,14.70
2019-04-04T12:59:46.371Z,14.20
2019-04-04T13:02:14.213Z,14.70
2019-04-04T13:04:42.067Z,15.40
2019-04-04T13:07:09.878Z,15.60
2019-04-04T13:09:37.697Z,15.00
2019-04-04T13:12:05.534Z,15.00
2019-04-04T13:14:33.313Z,15.00
2019-04-04T13:17:01.118Z,14.20
2019-04-04T13:19:29.068Z,14.10
2019-04-04T13:21:56.893Z,14.40
2019-04-04T13:24:24.702Z,14.70
2019-04-04T13:26:52.465Z,14.50
2019-04-04T13:29:20.309Z,14.00
2019-04-04T13:31:48.089Z,14.00
2019-04-04T13:34:17.969Z,14.10
2019-04-04T13:36:45.746Z,14.10
2019-04-04T13:39:13.580Z,13.90
2019-04-04T13:41:41.374Z,13.10
2019-04-04T13:44:09.203Z,13.00
2019-04-04T13:46:37.045Z,12.80
2019-04-04T13:49:04.903Z,12.60
2019-04-04T13:51:32.712Z,12.80
2019-04-04T13:54:00.536Z,12.60
2019-04-04T13:56:29.349Z,12.50
2019-04-04T13:59:01.159Z,12.10
2019-04-04T14:01:27.157Z,12.00
2019-04-04T14:03:55.038Z,12.00
2019-04-04T14:06:22.830Z,12.00
2019-04-04T14:08:50.661Z,11.90
2019-04-04T14:11:18.510Z,11.80
2019-04-04T14:13:48.563Z,11.70
2019-04-04T14:16:16.287Z,11.80
2019-04-04T14:18:45.253Z,11.70
2019-04-04T14:21:13.073Z,11.60
2019-04-04T14:23:40.879Z,11.60
2019-04-04T14:26:08.735Z,11.30
2019-04-04T14:28:36.608Z,11.10
2019-04-04T14:31:04.431Z,10.90
2019-04-04T14:33:32.228Z,10.60
2019-04-04T14:36:00.034Z,10.60
2019-04-04T14:38:27.926Z,10.50
2019-04-04T14:40:55.755Z,10.50
2019-04-04T14:43:23.583Z,10.20
2019-04-04T14:45:51.408Z,10.20
2019-04-04T14:48:19.366Z,10.10
2019-04-04T14:50:47.550Z,10.00
2019-04-04T14:53:15.398Z,9.90
2019-04-04T14:55:43.490Z,9.80
2019-04-04T14:58:11.426Z,9.80
2019-04-04T15:00:39.645Z,9.70
2019-04-04T15:03:07.539Z,9.80
2019-04-04T15:05:36.011Z,9.70
2019-04-04T15:08:04.150Z,9.60
2019-04-04T15:10:42.168Z,9.70
2019-04-04T15:13:10.027Z,9.50
2019-04-04T15:16:01.733Z,9.30
2019-04-04T15:18:29.597Z,9.10
2019-04-04T15:20:57.506Z,9.10
2019-04-04T15:23:25.558Z,9.00
2019-04-04T15:25:53.378Z,8.90
2019-04-04T15:28:21.194Z,9.00
2019-04-04T15:30:49.048Z,8.90
2019-04-04T15:33:16.838Z,8.80
2019-04-04T15:35:44.653Z,8.80
2019-04-04T15:38:12.463Z,8.70
2019-04-04T15:40:40.444Z,8.70
2019-04-04T15:43:08.271Z,8.70
2019-04-04T15:45:36.103Z,8.70
2019-04-04T15:48:03.882Z,8.70
2019-04-04T15:50:31.712Z,8.90
2019-04-04T15:52:59.457Z,8.60
2019-04-04T15:55:27.269Z,8.60
2019-04-04T15:57:55.044Z,8.40
2019-04-04T16:00:23.003Z,8.50
2019-04-04T16:02:50.788Z,8.40
2019-04-04T16:05:18.573Z,8.50
2019-04-04T16:07:46.359Z,8.50
2019-04-04T16:10:14.116Z,8.40
2019-04-04T16:12:41.881Z,8.40
2019-04-04T16:15:09.805Z,8.40
2019-04-04T16:17:37.532Z,8.30
2019-04-04T16:20:06.784Z,8.30
2019-04-04T16:22:34.552Z,8.20
2019-04-04T16:25:02.426Z,8.30
2019-04-04T16:27:30.268Z,8.30
2019-04-04T16:29:58.181Z,8.20
2019-04-04T16:32:25.940Z,8.20
2019-04-04T16:34:53.756Z,8.20
2019-04-04T16:37:21.620Z,8.10
2019-04-04T16:39:49.534Z,8.10
2019-04-04T16:42:17.335Z,8.00
2019-04-04T16:44:45.159Z,8.10
2019-04-04T16:47:21.710Z,8.00
2019-04-04T16:49:49.527Z,8.00
2019-04-04T16:52:17.288Z,8.00
2019-04-04T16:54:45.126Z,8.00
2019-04-04T16:57:13.026Z,8.00
2019-04-04T16:59:40.832Z,7.90
2019-04-04T17:02:08.599Z,8.00
2019-04-04T17:04:36.487Z,8.10
2019-04-04T17:07:04.322Z,7.90
2019-04-04T17:09:32.216Z,7.90
2019-04-04T17:12:00.012Z,7.90
2019-04-04T17:14:27.800Z,8.00
2019-04-04T17:16:55.651Z,8.00
2019-04-04T17:19:23.606Z,7.90
2019-04-04T17:21:51.432Z,8.00
2019-04-04T17:24:19.262Z,7.90
2019-04-04T17:26:47.174Z,7.90
2019-04-04T17:29:14.973Z,8.10
2019-04-04T17:31:42.745Z,8.00
2019-04-04T17:34:10.541Z,7.90
2019-04-04T17:36:38.319Z,7.90
2019-04-04T17:39:07.425Z,7.70
2019-04-04T17:41:35.334Z,7.80
2019-04-04T17:44:04.297Z,7.80
2019-04-04T17:46:32.322Z,7.80
2019-04-04T17:49:00.106Z,7.80
2019-04-04T17:51:28.343Z,8.00
2019-04-04T17:53:56.243Z,7.80
2019-04-04T17:56:24.110Z,7.60
2019-04-04T17:58:52.023Z,7.70
2019-04-04T18:01:27.359Z,7.60
2019-04-04T18:03:55.243Z,7.70
2019-04-04T18:06:24.891Z,7.70
2019-04-04T18:08:52.698Z,7.70
2019-04-04T18:11:20.465Z,7.60
2019-04-04T18:13:48.302Z,7.50
2019-04-04T18:16:16.122Z,7.70
2019-04-04T18:18:43.941Z,7.60
2019-04-04T18:21:11.806Z,7.70
2019-04-04T18:23:39.614Z,7.60
2019-04-04T18:26:07.432Z,7.70
2019-04-04T18:28:35.284Z,7.80
2019-04-04T18:31:03.312Z,7.70
2019-04-04T18:33:31.223Z,7.70
2019-04-04T18:35:59.118Z,7.70
2019-04-04T18:38:26.874Z,7.60
2019-04-04T18:40:54.907Z,7.70
2019-04-04T18:43:22.797Z,7.70
2019-04-04T18:45:50.595Z,7.80
2019-04-04T18:48:18.426Z,7.70
2019-04-04T18:50:46.494Z,7.60
2019-04-04T18:53:14.390Z,7.60
2019-04-04T18:55:42.185Z,7.70
2019-04-04T18:58:10.020Z,7.70
2019-04-04T19:00:37.954Z,7.60
2019-04-04T19:03:05.758Z,7.70
2019-04-04T19:05:33.529Z,7.60
2019-04-04T19:08:01.331Z,7.50
2019-04-04T19:10:29.308Z,7.40
2019-04-04T19:13:05.154Z,7.50
2019-04-04T19:15:26.839Z,7.40
2019-04-04T19:17:54.683Z,7.50
2019-04-04T19:20:22.502Z,7.50
2019-04-04T19:22:50.359Z,7.50
2019-04-04T19:25:21.400Z,7.50
2019-04-04T19:27:49.229Z,7.40
2019-04-04T19:30:19.661Z,7.20
2019-04-04T19:32:47.655Z,7.40
2019-04-04T19:35:16.860Z,7.30
2019-04-04T19:37:44.686Z,7.90
2019-04-04T19:40:14.243Z,7.40
2019-04-04T19:42:42.070Z,7.40
2019-04-04T19:45:11.090Z,7.40
2019-04-04T19:47:38.959Z,7.30
2019-04-04T19:50:09.499Z,7.30
2019-04-04T19:52:37.415Z,7.30
2019-04-04T19:55:06.731Z,7.40
2019-04-04T19:57:34.846Z,7.30
2019-04-04T20:00:02.922Z,7.30
2019-04-04T20:02:30.848Z,7.20
2019-04-04T20:04:58.670Z,7.00
2019-04-04T20:07:26.496Z,7.30
2019-04-04T20:09:54.266Z,7.20
2019-04-04T20:12:22.066Z,7.10
2019-04-04T20:14:49.839Z,7.10
2019-04-04T20:17:17.646Z,7.20
2019-04-04T20:19:47.312Z,7.00
2019-04-04T20:22:15.172Z,7.10
2019-04-04T20:24:43.015Z,6.90
2019-04-04T20:27:11.083Z,6.90
2019-04-04T20:29:38.900Z,6.90
2019-04-04T20:32:06.683Z,7.00
2019-04-04T20:34:34.440Z,7.00
2019-04-04T20:37:02.282Z,7.00
2019-04-04T20:39:30.319Z,6.90
2019-04-04T20:41:58.157Z,7.00
2019-04-04T20:44:25.982Z,7.00
2019-04-04T20:46:53.880Z,6.90
2019-04-04T20:49:21.705Z,6.80
2019-04-04T20:51:49.463Z,6.80
2019-04-04T20:54:17.305Z,6.90
2019-04-04T20:56:45.085Z,6.90
2019-04-04T20:59:12.815Z,6.90
2019-04-04T21:01:40.664Z,6.80
2019-04-04T21:04:08.463Z,6.90
2019-04-04T21:06:36.253Z,6.90
2019-04-04T21:09:07.030Z,7.00
2019-04-04T21:11:40.269Z,7.00
2019-04-04T21:14:08.115Z,6.90
2019-04-04T21:16:35.913Z,7.00
2019-04-04T21:19:03.785Z,6.90
2019-04-04T21:21:31.894Z,6.90
2019-04-04T21:23:59.717Z,6.90
2019-04-04T21:26:27.586Z,6.90
2019-04-04T21:28:55.349Z,7.00
2019-04-04T21:31:23.330Z,7.00
2019-04-04T21:33:51.120Z,7.00
2019-04-04T21:36:18.934Z,7.00
2019-04-04T21:38:46.928Z,7.00
2019-04-04T21:41:14.820Z,7.10
2019-04-04T21:43:44.964Z,7.00
2019-04-04T21:46:12.704Z,7.00
2019-04-04T21:48:41.679Z,7.00
2019-04-04T21:51:09.548Z,7.00
2019-04-04T21:53:37.432Z,6.90
2019-04-04T21:56:05.204Z,6.90
2019-04-04T21:58:33.009Z,6.90
2019-04-04T22:01:03.786Z,7.00
2019-04-04T22:03:31.585Z,7.00
2019-04-04T22:05:59.427Z,7.00
2019-04-04T22:08:27.224Z,7.00
2019-04-04T22:10:55.039Z,6.90
2019-04-04T22:13:22.897Z,7.00
2019-04-04T22:15:50.685Z,7.00
2019-04-04T22:18:18.472Z,7.00
2019-04-04T22:20:46.246Z,7.00
2019-04-04T22:23:13.997Z,7.10
2019-04-04T22:25:41.771Z,6.80
2019-04-04T22:28:09.809Z,7.20
2019-04-04T22:30:38.258Z,7.00
2019-04-04T22:33:06.032Z,7.00
2019-04-04T22:35:33.838Z,6.90
2019-04-04T22:38:01.677Z,7.30
2019-04-04T22:40:39.722Z,7.00
2019-04-04T22:43:07.544Z,7.00
2019-04-04T22:45:35.361Z,6.90
2019-04-04T22:48:03.256Z,6.90
2019-04-04T22:50:31.015Z,6.90
2019-04-04T22:52:58.843Z,6.90
2019-04-04T22:55:26.846Z,6.90
2019-04-04T22:57:54.623Z,6.90
2019-04-04T23:00:22.379Z,6.80
2019-04-04T23:02:50.123Z,6.80
2019-04-04T23:05:17.938Z,6.80
2019-04-04T23:07:45.685Z,7.20
2019-04-04T23:10:13.592Z,6.80
2019-04-04T23:12:41.353Z,6.80
2019-04-04T23:15:09.386Z,6.80
2019-04-04T23:17:37.132Z,6.90
2019-04-04T23:20:06.312Z,6.80
2019-04-04T23:22:34.061Z,6.90
2019-04-04T23:25:01.877Z,7.10
2019-04-04T23:27:29.740Z,6.90
2019-04-04T23:29:57.505Z,6.80
2019-04-04T23:32:25.330Z,6.70
2019-04-04T23:34:53.088Z,6.70
2019-04-04T23:37:20.915Z,6.70
2019-04-04T23:39:48.777Z,6.60
2019-04-04T23:42:16.546Z,6.50
2019-04-04T23:44:45.634Z,6.60
2019-04-04T23:47:13.396Z,6.60
2019-04-04T23:49:41.217Z,6.70
2019-04-04T23:52:09.052Z,6.60
2019-04-04T23:54:36.833Z,6.60
2019-04-04T23:57:04.663Z,6.50
2019-04-04T23:59:32.425Z,6.60
